Norwegian Wind — C6LG6 — position and weather

sailwx.info

Track history (hours):
 
Tides and Currents Weather Stations Pressure Air Temp Water Temp Dewpoint Dewpoint Depression Visibility Wind Speed Wind Dir Waves Ship Positions

Norwegian Wind

Operator: Norwegian Cruise Line

Last reported at 2019-Oct-17 00:00 UTC. Time now 2019-Oct-17 16:36 UTC.
Position N 24°24' E 123°48'.

Type: Passenger vessel. MMSI: 308273000.

Wind from 010 at 29 knots

Barometer 1013.2 mb
Air temperature 25.0 ° C
Visibility: greater than 10.8 NM
Dewpoint 22.2 ° C

Date/timePositionNaut miles runAvg speedWind from/ knotsBaromVisibWave heightAir tempDewpointWater temp
2019-Oct-17 00:00N 24°24' E 123°48'2010.2 010 / 291013.210.8 25.022.2
2019-Oct-16 22:00N 24°36' E 123°30'5213.1 010 / 291012.5 5.4 26.021.8
2019-Oct-16 18:00N 24°54' E 122°36'1612.9 020 / 331013.5 5.4 25.022.2
2019-Oct-16 16:44N 25°03' E 122°21'1314.7
2019-Oct-16 15:49N 25°08' E 122°07'513.7
2019-Oct-16 15:28N 25°10' E 122°02'612.7
2019-Oct-16 14:58N 25°11' E 121°56'511.8
2019-Oct-16 14:30N 25°12' E 121°50'510.1
2019-Oct-16 14:00N 25°10' E 121°45'2 3.2
2019-Oct-16 13:30N 25°08' E 121°45'0 0.0
2019-Oct-16 12:58N 25°08' E 121°45'0 0.0
2019-Oct-16 12:28N 25°08' E 121°45'0 0.0
2019-Oct-16 11:58N 25°08' E 121°45'0 0.0
2019-Oct-16 11:28N 25°08' E 121°45'0 0.0
2019-Oct-16 10:58N 25°08' E 121°45'0 0.0
2019-Oct-16 10:28N 25°08' E 121°45'0 0.0
2019-Oct-16 09:58N 25°08' E 121°45'0 0.0
2019-Oct-16 09:28N 25°08' E 121°45'0 0.0
2019-Oct-16 08:58N 25°08' E 121°45'0 0.0
2019-Oct-16 08:28N 25°08' E 121°45'0 0.0
2019-Oct-16 07:58N 25°08' E 121°45'0 0.0
2019-Oct-16 07:30N 25°08' E 121°45'1 1.7
2019-Oct-16 07:01N 25°09' E 121°45'510.3
2019-Oct-16 06:30N 25°14' E 121°46'612.4
2019-Oct-16 06:00N 25°14' E 121°52'4304.1
2019-Oct-16 06:00N 25°12' E 121°48'1121.8 030 / 191014.0 5.4 25.022.2
2019-Oct-16 05:30N 25°14' E 121°60'813.7
2019-Oct-16 04:56N 25°15' E 122°08'510.7
2019-Oct-16 04:29N 25°15' E 122°14'611.7
2019-Oct-16 03:57N 25°15' E 122°20'1414.9
2019-Oct-16 03:00N 25°12' E 122°36'2713.6 030 / 191016.010.8 26.021.8
2019-Oct-16 01:00N 25°12' E 123°06'13619.4 020 / 251016.2 5.4 25.022.2
2019-Oct-15 18:00N 25°12' E 125°36'6513.0 020 / 211015.3 5.4 24.019.6
2019-Oct-15 13:00N 25°48' E 126°36'59 8.4 010 / 271015.610.8 25.019.1
2019-Oct-15 06:00N 26°12' E 127°36'20 2.5 040 / 161014.0 5.4 26.021.8
2019-Oct-14 22:00N 26°00' E 127°18'5213.1 010 / 331013.0 5.4 25.020.7
2019-Oct-14 18:00N 25°24' E 126°36'12714.1 010 / 411014.0 5.4 26.021.8
2019-Oct-14 09:00N 24°42' E 124°24'44 2.9 350 / 351013.7 5.4 26.021.8
2019-Oct-13 18:00N 24°36' E 123°36'9412.3 020 / 291013.3 5.4 25.020.7
2019-Oct-13 10:21N 25°08' E 121°59'514.5
2019-Oct-13 10:00N 25°11' E 121°54'713.5
2019-Oct-13 09:30N 25°12' E 121°47'4 8.4
2019-Oct-13 09:00N 25°08' E 121°45'1 1.2
2019-Oct-13 08:30N 25°08' E 121°45'0 0.0
2019-Oct-13 08:00N 25°08' E 121°45'0 0.0
2019-Oct-13 07:30N 25°08' E 121°45'0 0.0
2019-Oct-13 06:59N 25°08' E 121°45'0 0.0
2019-Oct-13 06:29N 25°08' E 121°45'0 0.0
2019-Oct-13 05:59N 25°08' E 121°45'0 0.0
2019-Oct-13 05:29N 25°08' E 121°45'0 0.0
2019-Oct-13 04:59N 25°08' E 121°45'0 0.0
2019-Oct-13 04:29N 25°08' E 121°45'0 0.0
2019-Oct-13 03:59N 25°08' E 121°45'0 0.0
2019-Oct-13 03:29N 25°08' E 121°45'0 0.0
2019-Oct-13 02:59N 25°08' E 121°45'0 0.0
2019-Oct-13 02:30N 25°08' E 121°45'1 1.9
2019-Oct-13 02:00N 25°09' E 121°45'510.5
2019-Oct-13 01:31N 25°14' E 121°47'611.7
2019-Oct-13 01:00N 25°12' E 121°53'2 4.2
2019-Oct-13 00:30N 25°14' E 121°52'5 9.2
2019-Oct-13 00:00N 25°16' E 121°48'1 1.9
2019-Oct-12 23:30N 25°17' E 121°47'1 2.1
2019-Oct-12 22:58N 25°17' E 121°48'1 1.9
2019-Oct-12 22:30N 25°18' E 121°49'1 1.7
2019-Oct-12 22:00N 25°18' E 121°50'1 2.0
2019-Oct-12 21:29N 25°19' E 121°51'1 2.3
2019-Oct-12 21:00N 25°20' E 121°51'1 1.6
2019-Oct-12 20:27N 25°20' E 121°51'3 7.7
2019-Oct-12 20:00N 25°18' E 121°48'4 8.1
2019-Oct-12 19:30N 25°15' E 121°46'1 1.6
2019-Oct-12 19:00N 25°15' E 121°47'1 1.5
2019-Oct-12 18:30N 25°16' E 121°47'611.2
2019-Oct-12 18:00N 25°12' E 121°42'6332.3 010 / 81011.8 5.4 25.022.2
2019-Oct-12 17:58N 25°17' E 121°47'1 2.0
2019-Oct-12 17:30N 25°18' E 121°46'1 2.7
2019-Oct-12 16:59N 25°19' E 121°46'1 2.2
2019-Oct-12 16:30N 25°20' E 121°45'1 1.9
2019-Oct-12 15:59N 25°21' E 121°45'1 1.3
2019-Oct-12 15:30N 25°21' E 121°45'1 0.9
2019-Oct-12 14:57N 25°22' E 121°45'0 0.7
2019-Oct-12 14:26N 25°22' E 121°45'1 1.3
2019-Oct-12 14:00N 25°22' E 121°46'1 1.0
2019-Oct-12 13:29N 25°23' E 121°46'0 1.0
2019-Oct-12 13:00N 25°23' E 121°47'1 1.7
2019-Oct-12 12:26N 25°23' E 121°48'1 2.2
2019-Oct-12 12:00N 25°23' E 121°49'1 1.8
2019-Oct-12 11:29N 25°24' E 121°50'1 1.9
2019-Oct-12 10:57N 25°24' E 121°51'1 1.3
2019-Oct-12 10:28N 25°24' E 121°51'3 6.9
2019-Oct-12 10:00N 25°21' E 121°51'510.1
2019-Oct-12 09:29N 25°17' E 121°55'510.2
2019-Oct-12 08:59N 25°14' E 121°59'5 8.9
2019-Oct-12 08:27N 25°10' E 122°03'4 9.0
2019-Oct-12 07:59N 25°07' E 122°06'17 9.5
2019-Oct-12 06:11N 24°54' E 122°18'310.3
2019-Oct-12 05:52N 24°52' E 122°21'510.4
2019-Oct-12 05:26N 24°48' E 122°24'510.4
2019-Oct-12 04:58N 24°45' E 122°28'13 1.4
2019-Oct-11 19:40N 24°39' E 122°40'210.1
2019-Oct-11 19:29N 24°40' E 122°38'510.3
2019-Oct-11 19:00N 24°43' E 122°34'610.5
2019-Oct-11 18:26N 24°47' E 122°29'510.3
2019-Oct-11 17:58N 24°50' E 122°25'510.3
2019-Oct-11 17:26N 24°53' E 122°20'510.1
2019-Oct-11 16:56N 24°56' E 122°16'510.7
2019-Oct-11 16:27N 24°60' E 122°11'1012.3
2019-Oct-11 15:38N 25°05' E 122°02'212.4
2019-Oct-11 15:26N 25°07' E 122°00'511.5
2019-Oct-11 14:59N 25°10' E 121°56'510.8
2019-Oct-11 14:30N 25°12' E 121°50'5 9.5
2019-Oct-11 14:00N 25°10' E 121°45'3 5.1
2019-Oct-11 13:30N 25°08' E 121°45'0 0.0
2019-Oct-11 13:00N 25°08' E 121°45'0 0.0
2019-Oct-11 12:29N 25°08' E 121°45'0 0.0
2019-Oct-11 11:59N 25°08' E 121°45'0 0.0
2019-Oct-11 11:29N 25°08' E 121°45'0 0.0
2019-Oct-11 10:59N 25°08' E 121°45'0 0.0
2019-Oct-11 10:29N 25°08' E 121°45'0 0.0
2019-Oct-11 09:59N 25°08' E 121°45'0 0.0
2019-Oct-11 09:29N 25°08' E 121°45'0 0.0
2019-Oct-11 08:59N 25°08' E 121°45'0 0.0
2019-Oct-11 08:28N 25°08' E 121°45'0 0.0
2019-Oct-11 07:58N 25°08' E 121°45'0 0.7
2019-Oct-11 07:31N 25°08' E 121°45'3 6.0
2019-Oct-11 06:59N 25°11' E 121°45'612.9
2019-Oct-11 06:29N 25°14' E 121°51'713.1
2019-Oct-11 05:56N 25°14' E 121°59'612.8
2019-Oct-11 05:30N 25°14' E 122°05'714.0
2019-Oct-11 04:59N 25°14' E 122°13'5 9.5
2019-Oct-11 04:26N 25°15' E 122°19'0 0.4
2019-Oct-11 03:57N 25°14' E 122°19'0 0.3
2019-Oct-11 03:28N 25°14' E 122°19'0 0.6
2019-Oct-11 02:57N 25°14' E 122°19'0 0.6
2019-Oct-11 02:26N 25°14' E 122°19'0 0.7
2019-Oct-11 01:58N 25°13' E 122°19'0 0.6
2019-Oct-11 01:30N 25°13' E 122°19'1 1.2
2019-Oct-11 00:58N 25°12' E 122°20'1 1.5
2019-Oct-11 00:22N 25°12' E 122°20'1 1.8
2019-Oct-10 23:50N 25°11' E 122°20'2 2.0
2019-Oct-10 22:41N 25°08' E 122°20'4910.4
2019-Oct-10 18:00N 24°42' E 123°06'25 1.0 360 / 161008.5 5.4 24.019.6
2019-Oct-09 18:00N 24°54' E 122°42'4114.1 010 / 251010.6 5.4 25.019.1
2019-Oct-09 15:05N 25°08' E 121°60'415.9
2019-Oct-09 14:49N 25°10' E 121°55'515.3
2019-Oct-09 14:31N 25°12' E 121°51'611.0
2019-Oct-09 14:01N 25°09' E 121°45'1 2.9
2019-Oct-09 13:31N 25°08' E 121°45'0 0.0
2019-Oct-09 13:00N 25°08' E 121°45'0 0.0
2019-Oct-09 12:31N 25°08' E 121°45'0 0.0
2019-Oct-09 12:00N 25°08' E 121°45'0 0.0
2019-Oct-09 11:29N 25°08' E 121°45'0 0.0
2019-Oct-09 11:00N 25°08' E 121°45'0 0.0
2019-Oct-09 10:28N 25°08' E 121°45'0 0.0
2019-Oct-09 09:59N 25°08' E 121°45'0 0.0
2019-Oct-09 09:30N 25°08' E 121°45'0 0.0
2019-Oct-09 08:57N 25°08' E 121°45'0 0.0
2019-Oct-09 08:29N 25°08' E 121°45'0 0.0
2019-Oct-09 07:56N 25°08' E 121°45'0 0.2
2019-Oct-09 07:30N 25°08' E 121°45'2 3.6
2019-Oct-09 07:00N 25°10' E 121°45'713.6
2019-Oct-09 06:30N 25°17' E 121°46'17013.6
2019-Oct-08 18:00N 25°18' E 124°54'112 4.7 010 / 231012.9 5.4 25.023.6
2019-Oct-07 18:00N 25°48' E 126°54'   030 / 121012.9 5.4 26.021.8
Track history (hours):
 
Tides and Currents Weather Stations Pressure Air Temp Water Temp Dewpoint Dewpoint Depression Visibility Wind Speed Wind Dir Waves Ship Positions

Norwegian Wind

Operator: Norwegian Cruise Line

Last reported at 2019-Oct-17 00:00 UTC. Time now 2019-Oct-17 16:36 UTC.
Position N 24°24' E 123°48'.

Type: Passenger vessel. MMSI: 308273000.

Wind from 010 at 29 knots

Barometer 1013.2 mb
Air temperature 25.0 ° C
Visibility: greater than 10.8 NM
Dewpoint 22.2 ° C

Date/timePositionNaut miles runAvg speedWind from/ knotsBaromVisibWave heightAir tempDewpointWater temp
2019-Oct-17 00:00N 24°24' E 123°48'2010.2 010 / 291013.210.8 25.022.2
2019-Oct-16 22:00N 24°36' E 123°30'5213.1 010 / 291012.5 5.4 26.021.8
2019-Oct-16 18:00N 24°54' E 122°36'1612.9 020 / 331013.5 5.4 25.022.2
2019-Oct-16 16:44N 25°03' E 122°21'1314.7
2019-Oct-16 15:49N 25°08' E 122°07'513.7
2019-Oct-16 15:28N 25°10' E 122°02'612.7
2019-Oct-16 14:58N 25°11' E 121°56'511.8
2019-Oct-16 14:30N 25°12' E 121°50'510.1
2019-Oct-16 14:00N 25°10' E 121°45'2 3.2
2019-Oct-16 13:30N 25°08' E 121°45'0 0.0
2019-Oct-16 12:58N 25°08' E 121°45'0 0.0
2019-Oct-16 12:28N 25°08' E 121°45'0 0.0
2019-Oct-16 11:58N 25°08' E 121°45'0 0.0
2019-Oct-16 11:28N 25°08' E 121°45'0 0.0
2019-Oct-16 10:58N 25°08' E 121°45'0 0.0
2019-Oct-16 10:28N 25°08' E 121°45'0 0.0
2019-Oct-16 09:58N 25°08' E 121°45'0 0.0
2019-Oct-16 09:28N 25°08' E 121°45'0 0.0
2019-Oct-16 08:58N 25°08' E 121°45'0 0.0
2019-Oct-16 08:28N 25°08' E 121°45'0 0.0
2019-Oct-16 07:58N 25°08' E 121°45'0 0.0
2019-Oct-16 07:30N 25°08' E 121°45'1 1.7
2019-Oct-16 07:01N 25°09' E 121°45'510.3
2019-Oct-16 06:30N 25°14' E 121°46'612.4
2019-Oct-16 06:00N 25°14' E 121°52'4304.1
2019-Oct-16 06:00N 25°12' E 121°48'1121.8 030 / 191014.0 5.4 25.022.2
2019-Oct-16 05:30N 25°14' E 121°60'813.7
2019-Oct-16 04:56N 25°15' E 122°08'510.7
2019-Oct-16 04:29N 25°15' E 122°14'611.7
2019-Oct-16 03:57N 25°15' E 122°20'1414.9
2019-Oct-16 03:00N 25°12' E 122°36'2713.6 030 / 191016.010.8 26.021.8
2019-Oct-16 01:00N 25°12' E 123°06'13619.4 020 / 251016.2 5.4 25.022.2
2019-Oct-15 18:00N 25°12' E 125°36'6513.0 020 / 211015.3 5.4 24.019.6
2019-Oct-15 13:00N 25°48' E 126°36'59 8.4 010 / 271015.610.8 25.019.1
2019-Oct-15 06:00N 26°12' E 127°36'20 2.5 040 / 161014.0 5.4 26.021.8
2019-Oct-14 22:00N 26°00' E 127°18'5213.1 010 / 331013.0 5.4 25.020.7
2019-Oct-14 18:00N 25°24' E 126°36'12714.1 010 / 411014.0 5.4 26.021.8
2019-Oct-14 09:00N 24°42' E 124°24'44 2.9 350 / 351013.7 5.4 26.021.8
2019-Oct-13 18:00N 24°36' E 123°36'9412.3 020 / 291013.3 5.4 25.020.7
2019-Oct-13 10:21N 25°08' E 121°59'514.5
2019-Oct-13 10:00N 25°11' E 121°54'713.5
2019-Oct-13 09:30N 25°12' E 121°47'4 8.4
2019-Oct-13 09:00N 25°08' E 121°45'1 1.2
2019-Oct-13 08:30N 25°08' E 121°45'0 0.0
2019-Oct-13 08:00N 25°08' E 121°45'0 0.0
2019-Oct-13 07:30N 25°08' E 121°45'0 0.0
2019-Oct-13 06:59N 25°08' E 121°45'0 0.0
2019-Oct-13 06:29N 25°08' E 121°45'0 0.0
2019-Oct-13 05:59N 25°08' E 121°45'0 0.0
2019-Oct-13 05:29N 25°08' E 121°45'0 0.0
2019-Oct-13 04:59N 25°08' E 121°45'0 0.0
2019-Oct-13 04:29N 25°08' E 121°45'0 0.0
2019-Oct-13 03:59N 25°08' E 121°45'0 0.0
2019-Oct-13 03:29N 25°08' E 121°45'0 0.0
2019-Oct-13 02:59N 25°08' E 121°45'0 0.0
2019-Oct-13 02:30N 25°08' E 121°45'1 1.9
2019-Oct-13 02:00N 25°09' E 121°45'510.5
2019-Oct-13 01:31N 25°14' E 121°47'611.7
2019-Oct-13 01:00N 25°12' E 121°53'2 4.2
2019-Oct-13 00:30N 25°14' E 121°52'5 9.2
2019-Oct-13 00:00N 25°16' E 121°48'1 1.9
2019-Oct-12 23:30N 25°17' E 121°47'1 2.1
2019-Oct-12 22:58N 25°17' E 121°48'1 1.9
2019-Oct-12 22:30N 25°18' E 121°49'1 1.7
2019-Oct-12 22:00N 25°18' E 121°50'1 2.0
2019-Oct-12 21:29N 25°19' E 121°51'1 2.3
2019-Oct-12 21:00N 25°20' E 121°51'1 1.6
2019-Oct-12 20:27N 25°20' E 121°51'3 7.7
2019-Oct-12 20:00N 25°18' E 121°48'4 8.1
2019-Oct-12 19:30N 25°15' E 121°46'1 1.6
2019-Oct-12 19:00N 25°15' E 121°47'1 1.5
2019-Oct-12 18:30N 25°16' E 121°47'611.2
2019-Oct-12 18:00N 25°12' E 121°42'6332.3 010 / 81011.8 5.4 25.022.2
2019-Oct-12 17:58N 25°17' E 121°47'1 2.0
2019-Oct-12 17:30N 25°18' E 121°46'1 2.7
2019-Oct-12 16:59N 25°19' E 121°46'1 2.2
2019-Oct-12 16:30N 25°20' E 121°45'1 1.9
2019-Oct-12 15:59N 25°21' E 121°45'1 1.3
2019-Oct-12 15:30N 25°21' E 121°45'1 0.9
2019-Oct-12 14:57N 25°22' E 121°45'0 0.7
2019-Oct-12 14:26N 25°22' E 121°45'1 1.3
2019-Oct-12 14:00N 25°22' E 121°46'1 1.0
2019-Oct-12 13:29N 25°23' E 121°46'0 1.0
2019-Oct-12 13:00N 25°23' E 121°47'1 1.7
2019-Oct-12 12:26N 25°23' E 121°48'1 2.2
2019-Oct-12 12:00N 25°23' E 121°49'1 1.8
2019-Oct-12 11:29N 25°24' E 121°50'1 1.9
2019-Oct-12 10:57N 25°24' E 121°51'1 1.3
2019-Oct-12 10:28N 25°24' E 121°51'3 6.9
2019-Oct-12 10:00N 25°21' E 121°51'510.1
2019-Oct-12 09:29N 25°17' E 121°55'510.2
2019-Oct-12 08:59N 25°14' E 121°59'5 8.9
2019-Oct-12 08:27N 25°10' E 122°03'4 9.0
2019-Oct-12 07:59N 25°07' E 122°06'17 9.5
2019-Oct-12 06:11N 24°54' E 122°18'310.3
2019-Oct-12 05:52N 24°52' E 122°21'510.4
2019-Oct-12 05:26N 24°48' E 122°24'510.4
2019-Oct-12 04:58N 24°45' E 122°28'13 1.4
2019-Oct-11 19:40N 24°39' E 122°40'210.1
2019-Oct-11 19:29N 24°40' E 122°38'510.3
2019-Oct-11 19:00N 24°43' E 122°34'610.5
2019-Oct-11 18:26N 24°47' E 122°29'510.3
2019-Oct-11 17:58N 24°50' E 122°25'510.3
2019-Oct-11 17:26N 24°53' E 122°20'510.1
2019-Oct-11 16:56N 24°56' E 122°16'510.7
2019-Oct-11 16:27N 24°60' E 122°11'1012.3
2019-Oct-11 15:38N 25°05' E 122°02'212.4
2019-Oct-11 15:26N 25°07' E 122°00'511.5
2019-Oct-11 14:59N 25°10' E 121°56'510.8
2019-Oct-11 14:30N 25°12' E 121°50'5 9.5
2019-Oct-11 14:00N 25°10' E 121°45'3 5.1
2019-Oct-11 13:30N 25°08' E 121°45'0 0.0
2019-Oct-11 13:00N 25°08' E 121°45'0 0.0
2019-Oct-11 12:29N 25°08' E 121°45'0 0.0
2019-Oct-11 11:59N 25°08' E 121°45'0 0.0
2019-Oct-11 11:29N 25°08' E 121°45'0 0.0
2019-Oct-11 10:59N 25°08' E 121°45'0 0.0
2019-Oct-11 10:29N 25°08' E 121°45'0 0.0
2019-Oct-11 09:59N 25°08' E 121°45'0 0.0
2019-Oct-11 09:29N 25°08' E 121°45'0 0.0
2019-Oct-11 08:59N 25°08' E 121°45'0 0.0
2019-Oct-11 08:28N 25°08' E 121°45'0 0.0
2019-Oct-11 07:58N 25°08' E 121°45'0 0.7
2019-Oct-11 07:31N 25°08' E 121°45'3 6.0
2019-Oct-11 06:59N 25°11' E 121°45'612.9
2019-Oct-11 06:29N 25°14' E 121°51'713.1
2019-Oct-11 05:56N 25°14' E 121°59'612.8
2019-Oct-11 05:30N 25°14' E 122°05'714.0
2019-Oct-11 04:59N 25°14' E 122°13'5 9.5
2019-Oct-11 04:26N 25°15' E 122°19'0 0.4
2019-Oct-11 03:57N 25°14' E 122°19'0 0.3
2019-Oct-11 03:28N 25°14' E 122°19'0 0.6
2019-Oct-11 02:57N 25°14' E 122°19'0 0.6
2019-Oct-11 02:26N 25°14' E 122°19'0 0.7
2019-Oct-11 01:58N 25°13' E 122°19'0 0.6
2019-Oct-11 01:30N 25°13' E 122°19'1 1.2
2019-Oct-11 00:58N 25°12' E 122°20'1 1.5
2019-Oct-11 00:22N 25°12' E 122°20'1 1.8
2019-Oct-10 23:50N 25°11' E 122°20'2 2.0
2019-Oct-10 22:41N 25°08' E 122°20'4910.4
2019-Oct-10 18:00N 24°42' E 123°06'25 1.0 360 / 161008.5 5.4 24.019.6
2019-Oct-09 18:00N 24°54' E 122°42'4114.1 010 / 251010.6 5.4 25.019.1
2019-Oct-09 15:05N 25°08' E 121°60'415.9
2019-Oct-09 14:49N 25°10' E 121°55'515.3
2019-Oct-09 14:31N 25°12' E 121°51'611.0
2019-Oct-09 14:01N 25°09' E 121°45'1 2.9
2019-Oct-09 13:31N 25°08' E 121°45'0 0.0
2019-Oct-09 13:00N 25°08' E 121°45'0 0.0
2019-Oct-09 12:31N 25°08' E 121°45'0 0.0
2019-Oct-09 12:00N 25°08' E 121°45'0 0.0
2019-Oct-09 11:29N 25°08' E 121°45'0 0.0
2019-Oct-09 11:00N 25°08' E 121°45'0 0.0
2019-Oct-09 10:28N 25°08' E 121°45'0 0.0
2019-Oct-09 09:59N 25°08' E 121°45'0 0.0
2019-Oct-09 09:30N 25°08' E 121°45'0 0.0
2019-Oct-09 08:57N 25°08' E 121°45'0 0.0
2019-Oct-09 08:29N 25°08' E 121°45'0 0.0
2019-Oct-09 07:56N 25°08' E 121°45'0 0.2
2019-Oct-09 07:30N 25°08' E 121°45'2 3.6
2019-Oct-09 07:00N 25°10' E 121°45'713.6
2019-Oct-09 06:30N 25°17' E 121°46'17013.6
2019-Oct-08 18:00N 25°18' E 124°54'112 4.7 010 / 231012.9 5.4 25.023.6
2019-Oct-07 18:00N 25°48' E 126°54'   030 / 121012.9 5.4 26.021.8

Dump ship's entire track history